createdAt,value
2018-05-13T00:00:48.219Z,13.10
2018-05-13T00:03:16.428Z,13.00
2018-05-13T00:05:43.850Z,12.90
2018-05-13T00:08:11.610Z,12.80
2018-05-13T00:10:39.792Z,12.70
2018-05-13T00:13:07.243Z,12.70
2018-05-13T00:15:34.684Z,12.60
2018-05-13T00:18:02.106Z,12.50
2018-05-13T00:20:29.571Z,12.40
2018-05-13T00:22:57.000Z,12.40
2018-05-13T00:25:25.199Z,12.40
2018-05-13T00:27:52.915Z,12.40
2018-05-13T00:30:20.348Z,12.30
2018-05-13T00:32:47.771Z,12.30
2018-05-13T00:35:15.208Z,12.20
2018-05-13T00:37:42.635Z,12.30
2018-05-13T00:40:10.095Z,12.30
2018-05-13T00:42:37.555Z,12.20
2018-05-13T00:45:04.991Z,12.20
2018-05-13T00:47:32.487Z,12.20
2018-05-13T00:49:59.860Z,12.10
2018-05-13T00:52:27.302Z,12.10
2018-05-13T00:54:55.535Z,12.00
2018-05-13T00:57:22.960Z,12.00
2018-05-13T00:59:50.512Z,12.00
2018-05-13T01:02:17.938Z,12.10
2018-05-13T01:04:45.385Z,12.30
2018-05-13T01:07:12.809Z,12.40
2018-05-13T01:09:40.569Z,12.50
2018-05-13T01:12:08.023Z,12.50
2018-05-13T01:14:35.466Z,12.50
2018-05-13T01:17:02.899Z,12.60
2018-05-13T01:19:30.321Z,12.50
2018-05-13T01:21:57.762Z,12.40
2018-05-13T01:24:25.208Z,12.40
2018-05-13T01:26:52.635Z,12.40
2018-05-13T01:29:20.073Z,12.30
2018-05-13T01:31:47.539Z,12.30
2018-05-13T01:34:15.443Z,12.20
2018-05-13T01:36:42.877Z,12.20
2018-05-13T01:39:10.302Z,12.20
2018-05-13T01:41:38.071Z,12.20
2018-05-13T01:44:05.524Z,12.30
2018-05-13T01:46:32.954Z,12.30
2018-05-13T01:49:00.403Z,12.30
2018-05-13T01:51:27.843Z,12.30
2018-05-13T01:53:55.296Z,12.30
2018-05-13T01:56:22.725Z,12.30
2018-05-13T01:58:50.158Z,12.30
2018-05-13T02:01:18.357Z,12.20
2018-05-13T02:03:45.787Z,12.20
2018-05-13T02:06:13.241Z,12.10
2018-05-13T02:08:40.747Z,12.10
2018-05-13T02:11:08.125Z,12.00
2018-05-13T02:13:35.598Z,12.00
2018-05-13T02:16:03.050Z,12.00
2018-05-13T02:18:31.248Z,11.80
2018-05-13T02:20:58.703Z,11.80
2018-05-13T02:23:26.653Z,11.70
2018-05-13T02:25:54.839Z,11.60
2018-05-13T02:28:22.271Z,11.60
2018-05-13T02:30:50.766Z,11.60
2018-05-13T02:33:18.198Z,11.50
2018-05-13T02:35:45.619Z,11.50
2018-05-13T02:38:13.065Z,11.40
2018-05-13T02:40:40.494Z,11.40
2018-05-13T02:43:07.951Z,11.40
2018-05-13T02:45:35.360Z,11.30
2018-05-13T02:48:02.801Z,11.30
2018-05-13T02:50:30.243Z,11.20
2018-05-13T02:52:57.672Z,11.20
2018-05-13T02:55:25.124Z,11.10
2018-05-13T02:57:52.561Z,11.10
2018-05-13T03:00:19.994Z,11.10
2018-05-13T03:02:47.444Z,11.10
2018-05-13T03:05:14.863Z,11.10
2018-05-13T03:07:42.301Z,11.00
2018-05-13T03:10:09.743Z,11.00
2018-05-13T03:12:37.354Z,11.00
2018-05-13T03:15:04.776Z,11.00
2018-05-13T03:17:32.207Z,11.10
2018-05-13T03:19:59.661Z,11.10
2018-05-13T03:22:27.087Z,11.10
2018-05-13T03:24:54.515Z,11.10
2018-05-13T03:27:21.964Z,11.20
2018-05-13T03:29:49.395Z,11.20
2018-05-13T03:32:16.832Z,11.20
2018-05-13T03:34:44.289Z,11.30
2018-05-13T03:37:11.754Z,11.30
2018-05-13T03:39:39.198Z,11.40
2018-05-13T03:42:06.643Z,11.40
2018-05-13T03:44:34.859Z,11.40
2018-05-13T03:47:02.550Z,11.40
2018-05-13T03:49:29.996Z,11.50
2018-05-13T03:51:57.426Z,11.60
2018-05-13T03:54:24.886Z,11.60
2018-05-13T03:56:52.311Z,11.60
2018-05-13T03:59:19.752Z,11.60
2018-05-13T04:01:47.186Z,11.70
2018-05-13T04:04:15.385Z,11.70
2018-05-13T04:06:42.826Z,11.70
2018-05-13T04:09:21.924Z,11.70
2018-05-13T04:12:01.140Z,11.80
2018-05-13T04:14:41.314Z,11.80
2018-05-13T04:17:08.850Z,11.90
2018-05-13T04:19:36.223Z,12.00
2018-05-13T04:22:03.674Z,12.10
2018-05-13T04:24:31.118Z,12.10
2018-05-13T04:26:58.619Z,12.20
2018-05-13T04:29:26.103Z,12.30
2018-05-13T04:31:54.291Z,12.40
2018-05-13T04:34:21.755Z,12.40
2018-05-13T04:36:49.964Z,12.60
2018-05-13T04:39:17.391Z,12.60
2018-05-13T04:41:44.850Z,12.70
2018-05-13T04:44:12.281Z,12.80
2018-05-13T04:46:40.026Z,12.80
2018-05-13T04:49:07.515Z,12.90
2018-05-13T04:51:35.714Z,13.10
2018-05-13T04:54:03.926Z,13.20
2018-05-13T04:56:32.132Z,13.40
2018-05-13T04:58:59.618Z,13.30
2018-05-13T05:01:27.055Z,13.50
2018-05-13T05:03:54.766Z,13.60
2018-05-13T05:06:22.231Z,13.80
2018-05-13T05:08:49.665Z,14.00
2018-05-13T05:11:17.100Z,14.20
2018-05-13T05:13:44.523Z,14.50
2018-05-13T05:16:11.966Z,14.70
2018-05-13T05:18:39.529Z,14.90
2018-05-13T05:21:07.743Z,15.20
2018-05-13T05:23:35.175Z,15.10
2018-05-13T05:26:02.894Z,15.30
2018-05-13T05:28:30.318Z,15.40
2018-05-13T05:30:57.807Z,15.60
2018-05-13T05:33:25.313Z,15.80
2018-05-13T05:35:52.853Z,16.00
2018-05-13T05:38:20.523Z,16.20
2018-05-13T05:40:47.930Z,16.30
2018-05-13T05:43:15.389Z,16.40
2018-05-13T05:45:42.825Z,16.40
2018-05-13T05:48:10.408Z,16.40
2018-05-13T05:50:37.836Z,16.40
2018-05-13T05:53:05.264Z,16.30
2018-05-13T05:55:32.698Z,16.30
2018-05-13T05:58:00.202Z,16.30
2018-05-13T06:00:27.654Z,16.30
2018-05-13T06:02:55.087Z,16.30
2018-05-13T06:05:23.300Z,16.40
2018-05-13T06:07:50.742Z,16.40
2018-05-13T06:10:18.186Z,16.50
2018-05-13T06:12:45.919Z,16.60
2018-05-13T06:15:13.376Z,16.60
2018-05-13T06:17:40.814Z,16.60
2018-05-13T06:20:08.261Z,16.60
2018-05-13T06:22:35.695Z,16.60
2018-05-13T06:25:03.148Z,16.60
2018-05-13T06:27:30.571Z,16.60
2018-05-13T06:29:58.010Z,16.70
2018-05-13T06:32:25.467Z,16.70
2018-05-13T06:34:52.893Z,16.80
2018-05-13T06:37:20.599Z,16.80
2018-05-13T06:39:48.025Z,16.80
2018-05-13T06:42:15.458Z,16.80
2018-05-13T06:44:42.910Z,17.00
2018-05-13T06:47:10.339Z,17.10
2018-05-13T06:49:37.780Z,17.20
2018-05-13T06:52:05.227Z,17.30
2018-05-13T06:54:32.672Z,17.50
2018-05-13T06:57:00.098Z,17.60
2018-05-13T06:59:27.583Z,17.70
2018-05-13T07:01:55.424Z,17.80
2018-05-13T07:04:23.106Z,17.80
2018-05-13T07:06:50.534Z,17.90
2018-05-13T07:09:17.991Z,17.90
2018-05-13T07:11:45.495Z,18.00
2018-05-13T07:14:12.991Z,18.00
2018-05-13T07:16:40.456Z,18.00
2018-05-13T07:19:07.950Z,17.90
2018-05-13T07:21:35.690Z,17.90
2018-05-13T07:24:03.170Z,17.90
2018-05-13T07:26:30.598Z,18.00
2018-05-13T07:28:58.061Z,18.20
2018-05-13T07:31:25.495Z,18.30
2018-05-13T07:33:52.949Z,18.40
2018-05-13T07:36:21.160Z,19.10
2018-05-13T07:38:49.515Z,19.20
2018-05-13T07:41:16.959Z,19.40
2018-05-13T07:43:44.732Z,19.70
2018-05-13T07:46:12.179Z,19.70
2018-05-13T07:48:39.606Z,19.90
2018-05-13T07:51:07.049Z,20.10
2018-05-13T07:53:34.477Z,20.30
2018-05-13T07:56:02.259Z,20.40
2018-05-13T07:58:29.687Z,20.40
2018-05-13T08:00:57.125Z,20.40
2018-05-13T08:03:24.578Z,20.40
2018-05-13T08:05:52.007Z,20.20
2018-05-13T08:08:19.711Z,20.20
2018-05-13T08:10:47.162Z,20.20
2018-05-13T08:13:14.591Z,20.30
2018-05-13T08:15:42.138Z,20.40
2018-05-13T08:18:09.604Z,20.50
2018-05-13T08:20:37.048Z,20.70
2018-05-13T08:23:04.568Z,21.00
2018-05-13T08:25:32.184Z,21.40
2018-05-13T08:27:59.610Z,21.90
2018-05-13T08:30:27.088Z,22.40
2018-05-13T08:32:54.543Z,22.80
2018-05-13T08:35:22.097Z,23.00
2018-05-13T08:37:49.888Z,23.10
2018-05-13T08:40:17.303Z,22.90
2018-05-13T08:42:44.761Z,22.90
2018-05-13T08:45:12.211Z,22.90
2018-05-13T08:47:39.647Z,22.60
2018-05-13T08:50:07.148Z,22.40
2018-05-13T08:52:34.610Z,22.30
2018-05-13T08:55:02.055Z,22.20
2018-05-13T08:57:30.407Z,22.10
2018-05-13T08:59:57.957Z,22.00
2018-05-13T09:02:25.425Z,21.80
2018-05-13T09:04:52.935Z,21.50
2018-05-13T09:07:20.380Z,21.30
2018-05-13T09:09:48.620Z,21.30
2018-05-13T09:12:16.116Z,21.30
2018-05-13T09:14:43.644Z,21.40
2018-05-13T09:17:11.067Z,21.50
2018-05-13T09:19:38.518Z,21.60
2018-05-13T09:22:05.951Z,21.60
2018-05-13T09:24:33.413Z,21.60
2018-05-13T09:27:00.838Z,21.70
2018-05-13T09:29:28.322Z,21.80
2018-05-13T09:31:55.776Z,22.00
2018-05-13T09:34:23.319Z,22.20
2018-05-13T09:36:50.784Z,22.40
2018-05-13T09:39:18.274Z,22.50
2018-05-13T09:41:45.682Z,22.50
2018-05-13T09:44:13.152Z,22.40
2018-05-13T09:46:40.657Z,22.10
2018-05-13T09:49:08.085Z,21.90
2018-05-13T09:51:35.530Z,21.70
2018-05-13T09:54:03.019Z,21.50
2018-05-13T09:56:30.474Z,21.30
2018-05-13T09:58:57.983Z,21.20
2018-05-13T10:01:25.452Z,21.20
2018-05-13T10:03:52.890Z,21.10
2018-05-13T10:06:20.347Z,21.00
2018-05-13T10:08:48.548Z,20.80
2018-05-13T10:11:15.990Z,20.80
2018-05-13T10:13:43.450Z,20.60
2018-05-13T10:16:10.954Z,20.50
2018-05-13T10:18:38.391Z,20.20
2018-05-13T10:21:05.926Z,20.00
2018-05-13T10:23:34.347Z,19.80
2018-05-13T10:26:01.811Z,19.70
2018-05-13T10:28:29.317Z,19.60
2018-05-13T10:30:56.903Z,19.50
2018-05-13T10:33:24.359Z,19.50
2018-05-13T10:35:51.824Z,19.40
2018-05-13T10:38:19.255Z,19.40
2018-05-13T10:40:46.678Z,19.40
2018-05-13T10:43:14.126Z,19.50
2018-05-13T10:45:42.334Z,19.80
2018-05-13T10:48:09.793Z,19.70
2018-05-13T10:50:37.238Z,19.80
2018-05-13T10:53:04.676Z,19.90
2018-05-13T10:55:32.126Z,20.10
2018-05-13T10:58:00.337Z,20.50
2018-05-13T11:00:28.527Z,20.50
2018-05-13T11:02:55.992Z,20.70
2018-05-13T11:05:23.419Z,20.70
2018-05-13T11:07:50.862Z,20.60
2018-05-13T11:10:18.317Z,20.70
2018-05-13T11:12:45.770Z,20.50
2018-05-13T11:15:13.255Z,20.40
2018-05-13T11:17:41.706Z,20.10
2018-05-13T11:20:09.200Z,20.10
2018-05-13T11:22:36.677Z,20.10
2018-05-13T11:25:04.111Z,20.00
2018-05-13T11:27:31.587Z,20.00
2018-05-13T11:29:59.095Z,20.00
2018-05-13T11:32:26.539Z,20.00
2018-05-13T11:34:53.973Z,20.00
2018-05-13T11:37:21.427Z,19.90
2018-05-13T11:39:48.934Z,19.90
2018-05-13T11:42:16.339Z,19.80
2018-05-13T11:44:43.771Z,19.70
2018-05-13T11:47:11.227Z,19.60
2018-05-13T11:49:38.656Z,19.50
2018-05-13T11:52:06.094Z,19.40
2018-05-13T11:54:33.524Z,19.40
2018-05-13T11:57:00.987Z,19.40
2018-05-13T11:59:28.470Z,19.40
2018-05-13T12:01:55.865Z,19.40
2018-05-13T12:04:23.325Z,19.50
2018-05-13T12:06:50.754Z,19.50
2018-05-13T12:09:18.201Z,19.40
2018-05-13T12:11:45.630Z,19.40
2018-05-13T12:14:13.069Z,19.40
2018-05-13T12:16:40.515Z,19.40
2018-05-13T12:19:07.944Z,19.40
2018-05-13T12:21:35.388Z,19.60
2018-05-13T12:24:04.122Z,20.10
2018-05-13T12:26:31.571Z,20.10
2018-05-13T12:28:59.050Z,20.30
2018-05-13T12:31:26.471Z,20.50
2018-05-13T12:33:53.942Z,20.70
2018-05-13T12:36:21.396Z,21.00
2018-05-13T12:38:48.834Z,21.20
2018-05-13T12:41:16.311Z,21.30
2018-05-13T12:43:43.763Z,21.30
2018-05-13T12:46:11.214Z,21.50
2018-05-13T12:48:38.674Z,21.60
2018-05-13T12:51:06.140Z,21.70
2018-05-13T12:53:33.839Z,21.80
2018-05-13T12:56:01.279Z,21.90
2018-05-13T12:58:29.600Z,22.20
2018-05-13T13:00:57.178Z,22.20
2018-05-13T13:03:24.618Z,22.50
2018-05-13T13:05:52.066Z,22.70
2018-05-13T13:08:19.495Z,22.90
2018-05-13T13:10:46.949Z,23.10
2018-05-13T13:13:14.394Z,23.10
2018-05-13T13:15:41.851Z,23.20
2018-05-13T13:18:09.307Z,23.30
2018-05-13T13:20:36.769Z,23.30
2018-05-13T13:23:04.208Z,23.20
2018-05-13T13:25:31.654Z,23.30
2018-05-13T13:27:59.896Z,23.70
2018-05-13T13:30:28.206Z,23.80
2018-05-13T13:32:55.562Z,23.80
2018-05-13T13:35:23.054Z,23.90
2018-05-13T13:37:50.483Z,24.10
2018-05-13T13:40:17.945Z,24.20
2018-05-13T13:42:45.377Z,24.10
2018-05-13T13:45:12.825Z,24.20
2018-05-13T13:47:40.274Z,24.00
2018-05-13T13:50:07.741Z,23.80
2018-05-13T13:52:35.243Z,23.50
2018-05-13T13:55:02.701Z,23.30
2018-05-13T13:57:30.130Z,23.50
2018-05-13T13:59:57.599Z,24.00
2018-05-13T14:02:25.058Z,25.00
2018-05-13T14:04:52.511Z,26.00
2018-05-13T14:07:19.989Z,27.00
2018-05-13T14:09:48.183Z,26.80
2018-05-13T14:12:16.460Z,26.50
2018-05-13T14:14:43.922Z,26.40
2018-05-13T14:17:11.384Z,25.90
2018-05-13T14:19:38.854Z,25.60
2018-05-13T14:22:06.355Z,26.10
2018-05-13T14:24:33.808Z,26.90
2018-05-13T14:27:01.311Z,27.00
2018-05-13T14:29:28.703Z,26.90
2018-05-13T14:31:56.190Z,26.60
2018-05-13T14:34:23.629Z,26.00
2018-05-13T14:36:51.074Z,25.80
2018-05-13T14:39:18.554Z,25.40
2018-05-13T14:41:45.997Z,25.30
2018-05-13T14:44:14.223Z,24.40
2018-05-13T14:46:41.678Z,24.40
2018-05-13T14:49:09.146Z,24.10
2018-05-13T14:51:36.578Z,23.80
2018-05-13T14:54:04.039Z,23.40
2018-05-13T14:56:31.488Z,23.20
2018-05-13T14:58:58.987Z,23.20
2018-05-13T15:01:26.407Z,23.10
2018-05-13T15:03:54.919Z,22.90
2018-05-13T15:06:22.416Z,22.90
2018-05-13T15:08:49.831Z,22.80
2018-05-13T15:11:17.299Z,22.70
2018-05-13T15:13:44.739Z,22.40
2018-05-13T15:16:12.235Z,22.00
2018-05-13T15:18:39.973Z,21.50
2018-05-13T15:21:07.407Z,21.10
2018-05-13T15:23:34.863Z,20.80
2018-05-13T15:26:02.477Z,20.50
2018-05-13T15:28:29.938Z,20.20
2018-05-13T15:30:57.391Z,19.90
2018-05-13T15:33:24.901Z,19.60
2018-05-13T15:35:52.752Z,19.50
2018-05-13T15:38:20.177Z,19.40
2018-05-13T15:40:47.626Z,19.40
2018-05-13T15:43:15.268Z,19.40
2018-05-13T15:45:42.624Z,19.30
2018-05-13T15:48:10.515Z,19.30
2018-05-13T15:50:37.901Z,19.20
2018-05-13T15:53:05.397Z,19.20
2018-05-13T15:55:33.006Z,19.20
2018-05-13T15:58:00.795Z,19.10
2018-05-13T16:00:28.295Z,19.10
2018-05-13T16:02:55.758Z,19.00
2018-05-13T16:05:23.201Z,19.10
2018-05-13T16:07:50.919Z,19.10
2018-05-13T16:10:19.125Z,19.10
2018-05-13T16:12:46.604Z,19.00
2018-05-13T16:15:14.043Z,19.20
2018-05-13T16:17:41.520Z,19.20
2018-05-13T16:20:09.019Z,19.20
2018-05-13T16:22:36.496Z,19.10
2018-05-13T16:25:03.971Z,19.10
2018-05-13T16:27:31.454Z,19.10
2018-05-13T16:29:58.918Z,19.10
2018-05-13T16:32:26.352Z,19.30
2018-05-13T16:34:53.919Z,19.60
2018-05-13T16:37:21.408Z,19.80
2018-05-13T16:39:48.860Z,19.90
2018-05-13T16:42:16.653Z,19.90
2018-05-13T16:44:44.095Z,20.00
2018-05-13T16:47:11.552Z,19.90
2018-05-13T16:49:38.984Z,19.70
2018-05-13T16:52:07.189Z,19.40
2018-05-13T16:54:34.714Z,19.40
2018-05-13T16:57:02.146Z,19.40
2018-05-13T16:59:29.678Z,19.40
2018-05-13T17:01:57.032Z,19.40
2018-05-13T17:04:25.248Z,19.40
2018-05-13T17:06:52.700Z,19.40
2018-05-13T17:09:20.215Z,19.40
2018-05-13T17:11:47.618Z,19.40
2018-05-13T17:14:15.062Z,19.30
2018-05-13T17:16:42.516Z,19.10
2018-05-13T17:19:10.711Z,18.80
2018-05-13T17:21:38.295Z,18.80
2018-05-13T17:24:05.748Z,18.60
2018-05-13T17:26:33.180Z,18.40
2018-05-13T17:29:00.771Z,18.30
2018-05-13T17:31:28.200Z,18.10
2018-05-13T17:33:55.645Z,17.90
2018-05-13T17:36:23.108Z,17.70
2018-05-13T17:38:50.566Z,17.60
2018-05-13T17:41:18.029Z,17.50
2018-05-13T17:43:45.474Z,17.40
2018-05-13T17:46:12.943Z,17.30
2018-05-13T17:48:40.390Z,17.20
2018-05-13T17:51:07.828Z,17.10
2018-05-13T17:53:35.332Z,17.10
2018-05-13T17:56:02.778Z,17.00
2018-05-13T17:58:30.207Z,16.90
2018-05-13T18:00:57.768Z,16.90
2018-05-13T18:03:25.188Z,16.70
2018-05-13T18:05:52.559Z,16.60
2018-05-13T18:08:20.087Z,16.60
2018-05-13T18:10:47.542Z,16.50
2018-05-13T18:13:15.083Z,16.40
2018-05-13T18:15:42.530Z,16.30
2018-05-13T18:18:10.302Z,16.30
2018-05-13T18:20:37.755Z,16.30
2018-05-13T18:23:05.962Z,16.20
2018-05-13T18:25:33.419Z,16.20
2018-05-13T18:28:00.878Z,16.20
2018-05-13T18:30:28.320Z,16.10
2018-05-13T18:32:55.764Z,16.00
2018-05-13T18:35:23.225Z,16.00
2018-05-13T18:37:51.432Z,15.90
2018-05-13T18:40:18.871Z,15.90
2018-05-13T18:42:47.251Z,15.90
2018-05-13T18:45:15.472Z,15.90
2018-05-13T18:47:42.903Z,15.90
2018-05-13T18:50:10.392Z,15.80
2018-05-13T18:52:37.780Z,15.70
2018-05-13T18:55:05.236Z,15.60
2018-05-13T18:57:32.816Z,15.40
2018-05-13T19:00:00.251Z,15.30
2018-05-13T19:02:27.712Z,15.20
2018-05-13T19:04:55.163Z,15.00
2018-05-13T19:07:22.611Z,14.80
2018-05-13T19:09:50.104Z,14.60
2018-05-13T19:12:17.585Z,14.50
2018-05-13T19:14:45.020Z,14.30
2018-05-13T19:17:12.468Z,14.20
2018-05-13T19:19:39.912Z,14.10
2018-05-13T19:22:07.338Z,14.00
2018-05-13T19:24:35.547Z,13.90
2018-05-13T19:27:02.979Z,13.90
2018-05-13T19:29:30.434Z,13.80
2018-05-13T19:31:57.868Z,13.80
2018-05-13T19:34:25.338Z,13.80
2018-05-13T19:36:52.846Z,13.90
2018-05-13T19:39:20.219Z,13.80
2018-05-13T19:41:47.801Z,13.80
2018-05-13T19:44:15.254Z,13.70
2018-05-13T19:46:42.735Z,13.70
2018-05-13T19:49:10.210Z,13.70
2018-05-13T19:51:37.658Z,13.70
2018-05-13T19:54:05.202Z,13.70
2018-05-13T19:56:32.575Z,13.70
2018-05-13T19:59:00.015Z,13.60
2018-05-13T20:01:27.607Z,13.70
2018-05-13T20:03:55.042Z,13.70
2018-05-13T20:06:22.548Z,13.60
2018-05-13T20:08:50.034Z,13.60
2018-05-13T20:11:17.620Z,13.60
2018-05-13T20:13:45.099Z,13.60
2018-05-13T20:16:12.543Z,13.60
2018-05-13T20:18:39.995Z,13.60
2018-05-13T20:21:07.434Z,13.60
2018-05-13T20:23:34.925Z,13.60
2018-05-13T20:26:02.351Z,13.60
2018-05-13T20:28:29.802Z,13.60
2018-05-13T20:30:57.530Z,13.60
2018-05-13T20:33:24.969Z,13.60
2018-05-13T20:35:52.460Z,13.60
2018-05-13T20:38:19.859Z,13.60
2018-05-13T20:40:47.348Z,13.50
2018-05-13T20:43:14.882Z,13.50
2018-05-13T20:45:42.319Z,13.50
2018-05-13T20:48:09.766Z,13.50
2018-05-13T20:50:37.207Z,13.50
2018-05-13T20:53:04.667Z,13.40
2018-05-13T20:55:32.131Z,13.50
2018-05-13T20:57:59.576Z,13.50
2018-05-13T21:00:27.041Z,13.50
2018-05-13T21:02:54.507Z,13.50
2018-05-13T21:05:21.966Z,13.50
2018-05-13T21:07:51.144Z,13.40
2018-05-13T21:10:18.577Z,13.40
2018-05-13T21:12:47.146Z,13.40
2018-05-13T21:15:15.355Z,13.40
2018-05-13T21:17:42.790Z,13.40
2018-05-13T21:20:10.240Z,13.40
2018-05-13T21:22:37.675Z,13.50
2018-05-13T21:25:05.120Z,13.50
2018-05-13T21:27:32.620Z,13.50
2018-05-13T21:30:00.008Z,13.40
2018-05-13T21:32:27.598Z,13.40
2018-05-13T21:34:55.047Z,13.40
2018-05-13T21:37:22.478Z,13.40
2018-05-13T21:39:49.939Z,13.40
2018-05-13T21:42:17.382Z,13.40
2018-05-13T21:44:44.822Z,13.40
2018-05-13T21:47:12.332Z,13.40
2018-05-13T21:49:39.679Z,13.40
2018-05-13T21:52:07.124Z,13.40
2018-05-13T21:54:34.574Z,13.40
2018-05-13T21:57:01.995Z,13.40
2018-05-13T21:59:29.443Z,13.40
2018-05-13T22:01:56.933Z,13.40
2018-05-13T22:04:24.321Z,13.40
2018-05-13T22:06:51.766Z,13.40
2018-05-13T22:09:19.226Z,13.40
2018-05-13T22:11:46.662Z,13.40
2018-05-13T22:14:14.098Z,13.40
2018-05-13T22:16:41.538Z,13.40
2018-05-13T22:19:08.974Z,13.40
2018-05-13T22:21:36.410Z,13.40
2018-05-13T22:24:03.860Z,13.40
2018-05-13T22:26:31.289Z,13.50
2018-05-13T22:28:58.763Z,13.40
2018-05-13T22:31:26.216Z,13.40
2018-05-13T22:33:53.643Z,13.30
2018-05-13T22:36:21.381Z,13.30
2018-05-13T22:38:48.822Z,13.30
2018-05-13T22:41:16.290Z,13.40
2018-05-13T22:43:43.746Z,13.40
2018-05-13T22:46:11.178Z,13.40
2018-05-13T22:48:38.632Z,13.40
2018-05-13T22:51:06.839Z,13.40
2018-05-13T22:53:34.272Z,13.40
2018-05-13T22:56:04.261Z,13.40
2018-05-13T22:58:33.263Z,13.40
2018-05-13T23:01:00.685Z,13.30
2018-05-13T23:03:28.135Z,13.30
2018-05-13T23:05:55.573Z,13.20
2018-05-13T23:08:23.008Z,13.20
2018-05-13T23:10:50.504Z,13.10
2018-05-13T23:13:17.891Z,13.10
2018-05-13T23:15:46.107Z,12.90
2018-05-13T23:18:13.559Z,12.90
2018-05-13T23:20:41.744Z,12.80
2018-05-13T23:23:09.191Z,12.80
2018-05-13T23:25:36.622Z,12.70
2018-05-13T23:28:04.058Z,12.60
2018-05-13T23:30:31.508Z,12.60
2018-05-13T23:32:58.926Z,12.50
2018-05-13T23:35:26.368Z,12.40
2018-05-13T23:37:53.804Z,12.30
2018-05-13T23:40:21.231Z,12.20
2018-05-13T23:42:48.646Z,12.20
2018-05-13T23:45:16.083Z,12.10
2018-05-13T23:47:43.536Z,12.10
2018-05-13T23:50:10.967Z,12.10
2018-05-13T23:52:38.400Z,12.00
2018-05-13T23:55:05.832Z,12.00
2018-05-13T23:57:33.267Z,12.00
